createdAt,value
2023-04-18T00:00:53.495Z,6.93
2023-04-18T00:03:22.051Z,7.73
2023-04-18T00:05:49.951Z,7.23
2023-04-18T00:08:19.357Z,5.90
2023-04-18T00:10:46.772Z,7.10
2023-04-18T00:13:13.649Z,6.33
2023-04-18T00:15:41.865Z,6.93
2023-04-18T00:18:08.713Z,5.97
2023-04-18T00:20:39.028Z,6.37
2023-04-18T00:23:06.386Z,5.67
2023-04-18T00:25:33.163Z,4.43
2023-04-18T00:27:59.937Z,4.67
2023-04-18T00:30:27.284Z,6.50
2023-04-18T00:32:54.161Z,9.10
2023-04-18T00:35:20.915Z,9.30
2023-04-18T00:37:47.664Z,6.07
2023-04-18T00:40:14.333Z,6.57
2023-04-18T00:42:41.084Z,7.23
2023-04-18T00:45:08.528Z,8.77
2023-04-18T00:47:35.366Z,5.87
2023-04-18T00:50:03.134Z,7.13
2023-04-18T00:52:30.161Z,6.63
2023-04-18T00:54:56.907Z,8.67
2023-04-18T00:57:23.561Z,9.03
2023-04-18T00:59:50.624Z,9.57
2023-04-18T01:02:17.683Z,6.90
2023-04-18T01:04:44.661Z,12.67
2023-04-18T01:07:11.945Z,9.20
2023-04-18T01:09:38.727Z,11.07
2023-04-18T01:12:06.387Z,10.87
2023-04-18T01:14:33.041Z,10.37
2023-04-18T01:17:01.830Z,8.20
2023-04-18T01:19:28.660Z,13.70
2023-04-18T01:21:55.360Z,10.97
2023-04-18T01:24:24.676Z,9.67
2023-04-18T01:26:51.440Z,10.37
2023-04-18T01:29:18.130Z,9.47
2023-04-18T01:31:44.880Z,8.13
2023-04-18T01:34:11.897Z,9.60
2023-04-18T01:36:39.218Z,16.57
2023-04-18T01:39:06.792Z,10.20
2023-04-18T01:41:33.498Z,10.43
2023-04-18T01:44:00.893Z,11.70
2023-04-18T01:46:28.814Z,10.67
2023-04-18T01:48:56.765Z,11.20
2023-04-18T01:51:25.603Z,10.07
2023-04-18T01:53:52.256Z,9.97
2023-04-18T01:56:19.289Z,8.77
2023-04-18T01:58:46.177Z,11.30
2023-04-18T02:01:15.247Z,9.53
2023-04-18T02:03:42.003Z,10.03
2023-04-18T02:06:08.989Z,11.83
2023-04-18T02:08:36.148Z,10.23
2023-04-18T02:11:03.104Z,11.23
2023-04-18T02:13:29.827Z,9.63
2023-04-18T02:15:56.546Z,10.93
2023-04-18T02:18:25.162Z,13.13
2023-04-18T02:20:52.430Z,10.43
2023-04-18T02:23:19.560Z,9.13
2023-04-18T02:25:46.188Z,11.77
2023-04-18T02:28:12.821Z,9.07
2023-04-18T02:30:39.546Z,11.97
2023-04-18T02:33:06.715Z,16.40
2023-04-18T02:35:33.546Z,13.20
2023-04-18T02:38:00.269Z,11.60
2023-04-18T02:40:26.925Z,12.83
2023-04-18T02:42:53.576Z,13.47
2023-04-18T02:45:20.406Z,14.20
2023-04-18T02:47:54.535Z,18.20
2023-04-18T02:50:24.949Z,13.23
2023-04-18T02:52:51.782Z,13.20
2023-04-18T02:55:18.649Z,12.87
2023-04-18T02:57:45.450Z,15.83
2023-04-18T03:00:13.746Z,17.07
2023-04-18T03:02:40.537Z,17.10
2023-04-18T03:05:07.618Z,12.03
2023-04-18T03:07:34.428Z,18.97
2023-04-18T03:10:01.026Z,15.63
2023-04-18T03:12:27.849Z,11.17
2023-04-18T03:14:54.543Z,11.20
2023-04-18T03:17:21.403Z,12.93
2023-04-18T03:19:48.243Z,15.10
2023-04-18T03:22:16.036Z,16.77
2023-04-18T03:24:42.778Z,20.47
2023-04-18T03:27:09.528Z,15.57
2023-04-18T03:29:36.411Z,11.07
2023-04-18T03:32:03.310Z,12.43
2023-04-18T03:34:30.322Z,11.30
2023-04-18T03:36:57.112Z,10.03
2023-04-18T03:39:23.914Z,11.47
2023-04-18T03:41:52.327Z,7.97
2023-04-18T03:44:19.176Z,6.47
2023-04-18T03:46:46.062Z,8.53
2023-04-18T03:49:12.845Z,10.60
2023-04-18T03:51:45.579Z,8.03
2023-04-18T03:54:12.473Z,9.57
2023-04-18T03:56:39.963Z,5.73
2023-04-18T03:59:06.593Z,10.33
2023-04-18T04:01:33.624Z,5.33
2023-04-18T04:04:02.027Z,5.47
2023-04-18T04:06:28.957Z,5.03
2023-04-18T04:08:56.034Z,6.77
2023-04-18T04:11:23.295Z,7.17
2023-04-18T04:13:50.199Z,6.47
2023-04-18T04:16:17.166Z,5.53
2023-04-18T04:18:44.025Z,6.53
2023-04-18T04:21:10.909Z,9.73
2023-04-18T04:23:38.214Z,6.07
2023-04-18T04:26:05.089Z,5.53
2023-04-18T04:28:33.721Z,7.03
2023-04-18T04:31:00.557Z,5.47
2023-04-18T04:33:30.136Z,5.97
2023-04-18T04:35:56.910Z,6.27
2023-04-18T04:38:24.279Z,7.03
2023-04-18T04:40:51.395Z,12.23
2023-04-18T04:43:20.790Z,4.63
2023-04-18T04:45:54.684Z,9.07
2023-04-18T04:48:22.444Z,6.67
2023-04-18T04:50:54.191Z,7.13
2023-04-18T04:54:08.628Z,7.23
2023-04-18T04:56:43.482Z,8.30
2023-04-18T04:59:10.379Z,9.47
2023-04-18T05:01:37.385Z,11.77
2023-04-18T05:04:04.273Z,6.90
2023-04-18T05:06:33.772Z,8.67
2023-04-18T05:09:07.575Z,9.20
2023-04-18T05:11:34.302Z,11.07
2023-04-18T05:14:03.556Z,5.50
2023-04-18T05:16:30.311Z,9.70
2023-04-18T05:18:57.031Z,9.50
2023-04-18T05:21:26.278Z,9.07
2023-04-18T05:23:55.204Z,11.97
2023-04-18T05:26:22.425Z,9.00
2023-04-18T05:28:52.088Z,9.80
2023-04-18T05:31:18.815Z,10.90
2023-04-18T05:33:45.937Z,8.93
2023-04-18T05:36:14.538Z,8.70
2023-04-18T05:38:41.279Z,14.47
2023-04-18T05:41:09.351Z,15.47
2023-04-18T05:43:46.346Z,12.50
2023-04-18T05:46:21.358Z,12.10
2023-04-18T05:48:55.314Z,14.73
2023-04-18T05:51:22.104Z,22.60
2023-04-18T05:53:48.836Z,26.90
2023-04-18T05:56:17.801Z,20.50
2023-04-18T05:58:49.439Z,25.27
2023-04-18T06:01:18.806Z,27.53
2023-04-18T06:03:45.844Z,20.97
2023-04-18T06:06:13.159Z,30.17
2023-04-18T06:08:43.307Z,19.40
2023-04-18T06:11:12.277Z,23.83
2023-04-18T06:13:39.136Z,24.10
2023-04-18T06:16:06.412Z,27.23
2023-04-18T06:18:35.839Z,25.00
2023-04-18T06:21:05.030Z,35.40
2023-04-18T06:23:31.818Z,41.60
2023-04-18T06:25:59.027Z,31.50
2023-04-18T06:28:26.596Z,33.53
2023-04-18T06:30:55.756Z,38.77
2023-04-18T06:33:22.479Z,31.23
2023-04-18T06:35:49.237Z,31.17
2023-04-18T06:38:16.088Z,27.13
2023-04-18T06:40:42.950Z,38.00
2023-04-18T06:43:12.737Z,31.90
2023-04-18T06:45:41.420Z,34.40
2023-04-18T06:48:12.014Z,28.87
2023-04-18T06:50:41.922Z,32.10
2023-04-18T06:53:08.690Z,33.60
2023-04-18T06:55:36.119Z,28.80
2023-04-18T06:58:04.471Z,32.40
2023-04-18T07:00:31.452Z,33.47
2023-04-18T07:02:58.227Z,28.87
2023-04-18T07:05:27.174Z,28.73
2023-04-18T07:07:55.992Z,31.20
2023-04-18T07:10:22.972Z,27.30
2023-04-18T07:12:50.646Z,27.17
2023-04-18T07:15:17.450Z,30.50
2023-04-18T07:17:44.098Z,24.93
2023-04-18T07:20:12.977Z,24.73
2023-04-18T07:22:41.701Z,26.47
2023-04-18T07:25:09.162Z,20.20
2023-04-18T07:27:36.968Z,19.67
2023-04-18T07:30:07.430Z,18.57
2023-04-18T07:32:34.515Z,22.60
2023-04-18T07:35:01.806Z,23.47
2023-04-18T07:37:28.509Z,24.30
2023-04-18T07:39:55.397Z,21.67
2023-04-18T07:42:22.230Z,19.80
2023-04-18T07:44:50.198Z,19.67
2023-04-18T07:47:22.169Z,20.03
2023-04-18T07:49:51.198Z,16.67
2023-04-18T07:52:20.861Z,14.77
2023-04-18T07:54:47.843Z,13.70
2023-04-18T07:57:14.919Z,11.20
2023-04-18T07:59:41.580Z,14.60
2023-04-18T08:02:12.978Z,19.53
2023-04-18T08:04:41.290Z,20.20
2023-04-18T08:07:08.557Z,23.47
2023-04-18T08:09:35.348Z,22.93
2023-04-18T08:12:02.761Z,17.37
2023-04-18T08:14:29.516Z,22.57
2023-04-18T08:16:59.023Z,22.70
2023-04-18T08:19:28.282Z,20.77
2023-04-18T08:21:57.478Z,26.00
2023-04-18T08:24:24.297Z,22.00
2023-04-18T08:26:51.200Z,22.67
2023-04-18T08:29:21.019Z,19.40
2023-04-18T08:31:50.927Z,19.93
2023-04-18T08:34:20.272Z,20.63
2023-04-18T08:36:51.203Z,19.47
2023-04-18T08:39:20.277Z,17.37
2023-04-18T08:41:56.249Z,20.97
2023-04-18T08:44:23.047Z,17.07
2023-04-18T08:46:49.723Z,14.40
2023-04-18T08:49:19.916Z,14.57
2023-04-18T08:51:49.809Z,12.10
2023-04-18T08:54:19.564Z,13.27
2023-04-18T08:56:46.613Z,13.80
2023-04-18T08:59:13.694Z,10.70
2023-04-18T09:01:57.521Z,11.40
2023-04-18T09:04:36.471Z,9.30
2023-04-18T09:07:05.491Z,9.30
2023-04-18T09:09:52.113Z,9.73
2023-04-18T09:12:22.863Z,12.73
2023-04-18T09:14:51.639Z,11.50
2023-04-18T09:17:33.914Z,10.27
2023-04-18T09:20:03.464Z,12.23
2023-04-18T09:22:53.157Z,9.03
2023-04-18T09:25:41.998Z,9.67
2023-04-18T09:28:28.248Z,10.77
2023-04-18T09:31:20.839Z,7.80
2023-04-18T09:33:57.225Z,9.00
2023-04-18T09:36:29.532Z,10.57
2023-04-18T09:38:57.164Z,9.03
2023-04-18T09:41:24.321Z,8.60
2023-04-18T09:44:13.980Z,9.70
2023-04-18T09:46:41.579Z,10.80
2023-04-18T09:49:11.390Z,8.63
2023-04-18T09:51:41.887Z,11.03
2023-04-18T09:54:11.749Z,9.70
2023-04-18T09:56:44.418Z,9.50
2023-04-18T09:59:21.212Z,8.60
2023-04-18T10:01:49.921Z,9.30
2023-04-18T10:04:17.838Z,14.23
2023-04-18T10:06:49.719Z,9.60
2023-04-18T10:09:19.137Z,9.67
2023-04-18T10:11:45.889Z,7.63
2023-04-18T10:14:17.441Z,7.63
2023-04-18T10:16:51.064Z,9.13
2023-04-18T10:19:29.782Z,8.73
2023-04-18T10:22:00.744Z,8.23
2023-04-18T10:24:48.060Z,6.13
2023-04-18T10:27:15.472Z,8.27
2023-04-18T10:29:52.998Z,9.23
2023-04-18T10:32:22.736Z,7.30
2023-04-18T10:34:49.989Z,7.73
2023-04-18T10:37:20.748Z,6.17
2023-04-18T10:39:58.902Z,7.27
2023-04-18T10:42:58.196Z,8.43
2023-04-18T10:45:27.413Z,7.47
2023-04-18T10:51:19.310Z,5.47
2023-04-18T10:53:55.464Z,8.63
2023-04-18T10:56:22.140Z,9.97
2023-04-18T10:58:53.336Z,7.50
2023-04-18T11:01:36.571Z,10.70
2023-04-18T11:04:14.339Z,5.77
2023-04-18T11:06:49.930Z,6.10
2023-04-18T11:09:16.913Z,5.77
2023-04-18T11:11:44.523Z,6.40
2023-04-18T11:14:11.763Z,5.40
2023-04-18T11:16:42.167Z,4.87
2023-04-18T11:19:23.912Z,5.43
2023-04-18T11:21:51.589Z,7.70
2023-04-18T11:24:24.641Z,5.53
2023-04-18T11:26:56.453Z,6.77
2023-04-18T11:29:29.110Z,6.93
2023-04-18T11:31:58.969Z,6.50
2023-04-18T11:34:32.577Z,5.37
2023-04-18T11:37:00.820Z,10.60
2023-04-18T11:39:30.999Z,6.93
2023-04-18T11:42:00.814Z,6.43
2023-04-18T11:44:27.597Z,4.73
2023-04-18T11:46:54.472Z,8.07
2023-04-18T11:49:26.393Z,5.30
2023-04-18T11:51:53.820Z,6.37
2023-04-18T11:54:41.858Z,5.63
2023-04-18T11:57:25.637Z,6.13
2023-04-18T11:59:57.592Z,6.93
2023-04-18T12:02:26.791Z,7.20
2023-04-18T12:04:59.432Z,5.70
2023-04-18T12:07:37.668Z,8.17
2023-04-18T12:10:07.119Z,6.20
2023-04-18T12:12:37.296Z,5.93
2023-04-18T12:15:10.998Z,6.27
2023-04-18T12:17:44.313Z,5.23
2023-04-18T12:20:12.226Z,8.50
2023-04-18T12:22:41.152Z,5.87
2023-04-18T12:25:30.958Z,6.47
2023-04-18T12:28:00.292Z,5.90
2023-04-18T12:30:37.920Z,5.93
2023-04-18T12:33:05.263Z,5.47
2023-04-18T12:35:35.889Z,5.87
2023-04-18T12:38:05.504Z,5.17
2023-04-18T12:40:34.479Z,9.30
2023-04-18T12:43:03.436Z,6.73
2023-04-18T12:45:33.819Z,6.30
2023-04-18T12:48:00.682Z,5.77
2023-04-18T12:50:27.824Z,6.20
2023-04-18T12:52:56.314Z,5.93
2023-04-18T12:55:23.370Z,8.17
2023-04-18T12:57:52.554Z,6.27
2023-04-18T13:00:19.243Z,7.07
2023-04-18T13:02:47.521Z,5.80
2023-04-18T13:05:18.128Z,6.70
2023-04-18T13:07:45.261Z,8.13
2023-04-18T13:10:15.171Z,6.10
2023-04-18T13:12:42.183Z,7.93
2023-04-18T13:15:10.417Z,8.03
2023-04-18T13:17:38.366Z,6.97
2023-04-18T13:20:11.199Z,5.93
2023-04-18T13:22:44.607Z,5.43
2023-04-18T13:25:14.572Z,9.47
2023-04-18T13:27:42.157Z,6.37
2023-04-18T13:30:11.185Z,7.30
2023-04-18T13:32:39.415Z,9.63
2023-04-18T13:35:10.215Z,5.80
2023-04-18T13:37:38.209Z,6.80
2023-04-18T13:40:11.370Z,7.13
2023-04-18T13:42:38.933Z,5.07
2023-04-18T13:45:06.330Z,6.20
2023-04-18T13:47:36.080Z,7.67
2023-04-18T13:50:04.557Z,5.27
2023-04-18T13:52:31.655Z,5.07
2023-04-18T13:54:58.416Z,5.57
2023-04-18T13:57:28.580Z,4.63
2023-04-18T13:59:58.157Z,7.03
2023-04-18T14:02:28.187Z,5.63
2023-04-18T14:04:57.116Z,6.50
2023-04-18T14:07:23.948Z,5.90
2023-04-18T14:09:52.681Z,7.33
2023-04-18T14:12:21.104Z,8.63
2023-04-18T14:14:48.276Z,6.93
2023-04-18T14:17:14.890Z,7.57
2023-04-18T14:19:41.740Z,6.33
2023-04-18T14:22:08.629Z,6.57
2023-04-18T14:24:36.909Z,9.80
2023-04-18T14:27:04.128Z,6.30
2023-04-18T14:29:31.148Z,7.93
2023-04-18T14:31:58.064Z,8.33
2023-04-18T14:34:24.979Z,7.37
2023-04-18T14:36:51.637Z,7.03
2023-04-18T14:39:18.342Z,5.30
2023-04-18T14:41:50.859Z,9.23
2023-04-18T14:44:20.123Z,7.80
2023-04-18T14:46:49.142Z,10.27
2023-04-18T14:49:15.888Z,7.03
2023-04-18T14:51:42.752Z,7.93
2023-04-18T14:54:11.428Z,8.13
2023-04-18T14:56:38.164Z,8.10
2023-04-18T14:59:04.854Z,9.03
2023-04-18T15:01:33.615Z,7.53
2023-04-18T15:04:00.680Z,5.93
2023-04-18T15:06:27.586Z,8.17
2023-04-18T15:08:54.874Z,10.10
2023-04-18T15:11:21.623Z,10.00
2023-04-18T15:13:48.449Z,10.03
2023-04-18T15:16:15.233Z,8.40
2023-04-18T15:18:45.404Z,7.30
2023-04-18T15:21:12.291Z,5.30
2023-04-18T15:23:38.955Z,10.93
2023-04-18T15:26:06.456Z,9.53
2023-04-18T15:28:33.544Z,7.27
2023-04-18T15:31:00.260Z,8.93
2023-04-18T15:33:27.389Z,8.77
2023-04-18T15:35:56.130Z,6.77
2023-04-18T15:38:22.992Z,8.57
2023-04-18T15:40:49.846Z,12.17
2023-04-18T15:43:17.409Z,6.30
2023-04-18T15:45:47.420Z,6.47
2023-04-18T15:48:16.440Z,8.73
2023-04-18T15:50:43.234Z,9.20
2023-04-18T15:53:12.192Z,10.30
2023-04-18T15:55:40.606Z,11.10
2023-04-18T15:58:07.682Z,13.63
2023-04-18T16:00:34.587Z,10.60
2023-04-18T16:03:01.679Z,9.30
2023-04-18T16:05:28.711Z,8.93
2023-04-18T16:07:56.434Z,8.03
2023-04-18T16:10:24.250Z,10.10
2023-04-18T16:12:51.109Z,10.23
2023-04-18T16:15:17.919Z,10.33
2023-04-18T16:17:44.753Z,8.53
2023-04-18T16:20:11.952Z,13.70
2023-04-18T16:22:38.821Z,9.50
2023-04-18T16:25:06.361Z,10.37
2023-04-18T16:27:36.831Z,12.07
2023-04-18T16:30:04.081Z,16.23
2023-04-18T16:32:30.987Z,10.07
2023-04-18T16:34:57.842Z,11.67
2023-04-18T16:37:25.891Z,12.10
2023-04-18T16:39:52.747Z,12.13
2023-04-18T16:42:19.481Z,10.27
2023-04-18T16:44:48.638Z,12.80
2023-04-18T16:47:15.275Z,13.97
2023-04-18T16:49:43.745Z,13.03
2023-04-18T16:52:12.502Z,17.07
2023-04-18T16:54:42.265Z,14.20
2023-04-18T16:57:09.214Z,11.17
2023-04-18T16:59:36.012Z,11.63
2023-04-18T17:02:03.222Z,12.60
2023-04-18T17:04:31.127Z,10.73
2023-04-18T17:06:58.389Z,13.80
2023-04-18T17:09:25.491Z,13.67
2023-04-18T17:11:52.138Z,9.67
2023-04-18T17:14:19.067Z,12.27
2023-04-18T17:19:15.563Z,13.80
2023-04-18T17:21:43.652Z,12.87
2023-04-18T17:24:13.038Z,10.63
2023-04-18T17:26:40.141Z,9.97
2023-04-18T17:29:06.815Z,8.93
2023-04-18T17:31:36.473Z,18.97
2023-04-18T17:34:06.184Z,13.83
2023-04-18T17:36:36.396Z,16.97
2023-04-18T17:39:06.845Z,13.30
2023-04-18T17:41:38.711Z,13.40
2023-04-18T17:44:10.630Z,18.07
2023-04-18T17:46:37.513Z,13.33
2023-04-18T17:49:07.886Z,18.93
2023-04-18T17:51:34.645Z,11.90
2023-04-18T17:54:01.405Z,11.33
2023-04-18T17:56:28.636Z,15.20
2023-04-18T17:58:56.687Z,12.70
2023-04-18T18:01:25.084Z,11.33
2023-04-18T18:03:53.795Z,10.93
2023-04-18T18:06:20.863Z,11.13
2023-04-18T18:08:49.980Z,10.90
2023-04-18T18:11:16.783Z,9.20
2023-04-18T18:13:44.111Z,8.87
2023-04-18T18:16:11.538Z,10.20
2023-04-18T18:18:39.256Z,13.20
2023-04-18T18:21:05.995Z,13.10
2023-04-18T18:23:32.759Z,12.33
2023-04-18T18:25:59.491Z,13.60
2023-04-18T18:28:26.193Z,9.17
2023-04-18T18:30:54.171Z,10.90
2023-04-18T18:33:21.090Z,10.47
2023-04-18T18:35:47.693Z,13.90
2023-04-18T18:38:14.348Z,12.50
2023-04-18T18:40:41.032Z,10.97
2023-04-18T18:43:08.103Z,13.43
2023-04-18T18:45:34.797Z,11.43
2023-04-18T18:48:01.551Z,25.20
2023-04-18T18:50:28.485Z,17.90
2023-04-18T18:52:55.525Z,10.87
2023-04-18T18:55:22.214Z,13.77
2023-04-18T18:57:48.863Z,10.57
2023-04-18T19:00:15.983Z,14.47
2023-04-18T19:02:42.859Z,14.17
2023-04-18T19:05:09.960Z,11.90
2023-04-18T19:07:36.758Z,10.90
2023-04-18T19:10:03.707Z,13.40
2023-04-18T19:12:30.406Z,13.50
2023-04-18T19:14:57.148Z,12.27
2023-04-18T19:17:24.992Z,17.30
2023-04-18T19:19:53.197Z,12.50
2023-04-18T19:22:19.955Z,15.93
2023-04-18T19:24:46.636Z,15.00
2023-04-18T19:27:13.424Z,20.10
2023-04-18T19:29:40.409Z,16.27
2023-04-18T19:32:07.242Z,11.83
2023-04-18T19:34:33.943Z,13.77
2023-04-18T19:37:01.642Z,16.53
2023-04-18T19:39:28.531Z,14.07
2023-04-18T19:41:55.497Z,13.40
2023-04-18T19:44:22.228Z,18.53
2023-04-18T19:46:48.879Z,13.63
2023-04-18T19:49:16.094Z,13.00
2023-04-18T19:51:42.949Z,18.57
2023-04-18T19:54:09.688Z,13.47
2023-04-18T19:56:36.421Z,18.97
2023-04-18T19:59:06.104Z,14.70
2023-04-18T20:01:33.131Z,15.70
2023-04-18T20:04:00.713Z,18.37
2023-04-18T20:06:28.235Z,15.13
2023-04-18T20:08:55.154Z,18.40
2023-04-18T20:11:22.275Z,16.10
2023-04-18T20:13:49.150Z,19.27
2023-04-18T20:16:17.039Z,15.53
2023-04-18T20:18:47.599Z,16.80
2023-04-18T20:21:14.412Z,18.53
2023-04-18T20:23:42.706Z,16.90
2023-04-18T20:26:09.507Z,17.47
2023-04-18T20:28:36.661Z,19.60
2023-04-18T20:31:03.885Z,26.10
2023-04-18T20:33:30.662Z,18.07
2023-04-18T20:35:59.007Z,21.87
2023-04-18T20:38:29.685Z,16.60
2023-04-18T20:40:59.035Z,21.40
2023-04-18T20:43:25.980Z,18.13
2023-04-18T20:45:53.981Z,21.20
2023-04-18T20:48:21.603Z,19.63
2023-04-18T20:50:51.661Z,21.27
2023-04-18T20:53:21.184Z,15.30
2023-04-18T20:55:49.148Z,19.57
2023-04-18T20:58:15.944Z,22.60
2023-04-18T21:00:43.853Z,22.63
2023-04-18T21:03:13.480Z,19.80
2023-04-18T21:05:40.415Z,24.43
2023-04-18T21:08:07.142Z,19.67
2023-04-18T21:10:34.256Z,18.63
2023-04-18T21:13:01.266Z,20.57
2023-04-18T21:15:27.976Z,18.90
2023-04-18T21:17:56.279Z,20.33
2023-04-18T21:20:23.196Z,22.43
2023-04-18T21:22:49.759Z,20.73
2023-04-18T21:25:16.818Z,21.40
2023-04-18T21:27:43.612Z,22.10
2023-04-18T21:30:10.764Z,23.37
2023-04-18T21:32:37.521Z,24.27
2023-04-18T21:35:04.577Z,18.53
2023-04-18T21:37:31.406Z,21.30
2023-04-18T21:39:58.079Z,20.50
2023-04-18T21:42:24.900Z,19.60
2023-04-18T21:44:51.618Z,24.47
2023-04-18T21:47:18.275Z,21.57
2023-04-18T21:49:44.963Z,20.03
2023-04-18T21:52:11.586Z,18.77
2023-04-18T21:54:39.980Z,17.10
2023-04-18T21:57:06.892Z,19.50
2023-04-18T21:59:33.631Z,20.23
2023-04-18T22:02:00.475Z,24.83
2023-04-18T22:04:27.929Z,17.13
2023-04-18T22:06:57.146Z,16.03
2023-04-18T22:09:23.810Z,17.87
2023-04-18T22:11:52.053Z,17.67
2023-04-18T22:14:20.207Z,19.27
2023-04-18T22:16:46.799Z,20.63
2023-04-18T22:19:14.383Z,20.23
2023-04-18T22:21:40.934Z,17.87
2023-04-18T22:24:08.475Z,20.50
2023-04-18T22:26:35.106Z,19.43
2023-04-18T22:29:01.718Z,18.70
2023-04-18T22:31:28.573Z,15.40
2023-04-18T22:33:55.501Z,17.13
2023-04-18T22:36:22.083Z,20.50
2023-04-18T22:38:48.872Z,20.40
2023-04-18T22:41:15.461Z,16.07
2023-04-18T22:43:42.160Z,21.13
2023-04-18T22:46:08.871Z,18.13
2023-04-18T22:48:35.807Z,18.43
2023-04-18T22:51:02.846Z,15.93
2023-04-18T22:53:29.490Z,24.10
2023-04-18T22:55:56.448Z,16.57
2023-04-18T22:58:23.282Z,19.03
2023-04-18T23:00:50.161Z,21.43
2023-04-18T23:03:17.039Z,23.13
2023-04-18T23:05:43.708Z,18.63
2023-04-18T23:08:12.161Z,19.63
2023-04-18T23:10:39.182Z,19.97
2023-04-18T23:13:05.939Z,22.17
2023-04-18T23:15:32.882Z,21.13
2023-04-18T23:17:59.739Z,24.00
2023-04-18T23:20:26.384Z,19.80
2023-04-18T23:22:53.957Z,19.03
2023-04-18T23:25:21.217Z,23.13
2023-04-18T23:27:50.560Z,24.33
2023-04-18T23:30:17.302Z,21.87
2023-04-18T23:32:44.258Z,24.57
2023-04-18T23:35:11.621Z,20.77
2023-04-18T23:37:38.348Z,31.07
2023-04-18T23:40:06.946Z,17.43
2023-04-18T23:42:37.222Z,18.83
2023-04-18T23:45:04.593Z,20.03
2023-04-18T23:47:31.416Z,20.70
2023-04-18T23:49:58.155Z,19.73
2023-04-18T23:52:24.772Z,19.50
2023-04-18T23:54:51.927Z,17.47
2023-04-18T23:57:20.853Z,16.10
2023-04-18T23:59:47.599Z,13.60
